Latest Coastal Weather Observations for Cape Leeuwin

IDW60701

Issued at 6:02 am WST Thursday 11 February 2016 (issued every 10 minutes, with the page automatically refreshed every 10 minutes)

About coastal observations | Map of coastal stations | Coastal observations for WA | Marine services | Other Formats
Station Details ID: 009518 Name: CAPE LEEUWIN Lat: -34.37 Lon: 115.14 Height: 13.0 m
Data from the previous 72 hours. | See also: Recent months at Cape Leeuwin
Date/Time
WST
Temp

°C
Wind Pressure Rain
since 9am
mm
Weather Cloud Vis
km
Sea
Height
m
Swell
Dir
 
Speed
knots
Gust
knots
hPa Trend Height
m
Period
s
Dir
11/06:00am 19.5 ESE 21 25 1014.4 - 0.0 - - - - - - -
11/05:30am 19.4 ESE 20 26 1014.3 - 0.0 - - - - - - -
11/05:00am 19.3 ESE 20 25 1014.0 - 0.0 - - - - - - -
11/04:30am 19.4 SE 19 24 1013.8 - 0.0 - - - - - - -
11/04:00am 19.5 SE 21 26 1013.7 - 0.0 - - - - - - -
11/03:30am 19.6 SE 21 26 1013.7 - 0.0 - - - - - - -
11/03:00am 19.6 SE 22 27 1013.7 - 0.0 - - - - - - -
11/02:30am 19.5 SE 21 28 1013.7 - 0.0 - - - - - - -
11/02:00am 19.4 SE 22 29 1014.0 - 0.0 - - - - - - -
11/01:30am 19.5 SE 21 27 1014.1 - 0.0 - - - - - - -
11/01:00am 19.5 SE 23 28 1014.2 - 0.0 - - - - - - -
11/12:30am 19.5 SE 23 29 1014.4 - 0.0 - - - - - - -
11/12:00am 19.6 SE 24 31 1014.6 - 0.0 - - - - - - -
 
Date/Time
WST
Temp

°C
Wind Pressure Rain
since 9am
mm
Weather Cloud Vis
km
Sea
Height
m
Swell
Dir
 
Speed
knots
Gust
knots
hPa Trend Height
m
Period
s
Dir
10/11:30pm 19.6 SE 22 29 1014.6 - 0.0 - - - - - - -
10/11:00pm 19.6 SE 24 30 1014.9 - 0.0 - - - - - - -
10/10:30pm 19.7 SE 23 31 1015.2 - 0.0 - - - - - - -
10/10:00pm 19.8 SE 24 32 1015.3 - 0.0 - - - - - - -
10/09:30pm 19.7 SE 26 32 1015.4 - 0.0 - - - - - - -
10/09:00pm 19.7 SE 25 35 1015.2 - 0.0 - - - - - - -
10/08:59pm 19.8 SE 25 35 1015.2 - 0.0 - - - - - - -
10/08:30pm 19.7 SE 26 33 1015.1 - 0.0 - - - - - - -
10/08:15pm 19.7 SE 24 34 1015.1 - 0.0 - - - - - - -
10/08:00pm 19.8 SE 24 30 1014.9 - 0.0 - - - - - - -
10/07:30pm 19.8 SE 22 30 1014.7 - 0.0 - - - - - - -
10/07:00pm 20.0 SE 24 32 1014.5 - 0.0 - - - - - - -
10/06:30pm 20.4 SE 22 29 1014.3 - 0.0 - - - - - - -
10/06:00pm 20.6 SE 20 26 1014.2 - 0.0 - - - - - - -
10/05:30pm 20.9 SE 18 25 1014.1 - 0.0 - - - - - - -
10/05:00pm 21.5 SE 20 27 1014.1 - 0.0 - - - - - - -
10/04:30pm 21.6 SE 21 26 1014.1 - 0.0 - - - - - - -
10/04:00pm 21.6 SE 22 27 1014.1 - 0.0 - - - - - - -
10/03:30pm 22.1 SE 21 26 1014.4 - 0.0 - - - - - - -
10/03:00pm 21.6 SE 22 29 1014.5 - 0.0 - - - - - - -
10/02:30pm 21.7 SE 23 29 1014.8 - 0.0 - - - - - - -
10/02:00pm 21.8 SE 23 30 1015.1 - 0.0 - - - - - - -
10/01:30pm 21.9 SE 24 31 1015.4 - 0.0 - - - - - - -
10/01:00pm 21.9 SE 24 32 1015.5 - 0.0 - - - - - - -
10/12:30pm 21.9 SE 24 33 1015.8 - 0.0 - - - - - - -
10/12:00pm 22.2 SE 25 31 1016.1 - 0.0 - - - - - - -
10/11:30am 22.0 SE 24 31 1016.3 - 0.0 - - - - - - -
10/11:00am 22.0 SE 22 29 1016.8 - 0.0 - - - - - - -
10/10:30am 21.6 SE 23 29 1017.0 - 0.0 - - - - - - -
10/10:00am 21.2 SE 23 29 1017.2 - 0.0 - - - - - - -
10/09:30am 21.0 SE 23 30 1017.1 - 0.0 - - - - - - -
10/09:00am 20.6 ESE 24 29 1017.2 - 0.0 - - - - - - -
10/08:30am 20.3 ESE 24 30 1017.2 - 0.0 - - - - - - -
10/08:00am 20.4 ESE 24 30 1017.3 - 0.0 - - - - - - -
10/07:30am 19.9 ESE 23 31 1017.3 - 0.0 - - - - - - -
10/07:00am 19.8 ESE 25 31 1017.0 - 0.0 - - - - - - -
10/06:30am 19.8 SE 24 31 1017.1 - 0.0 - - - - - - -
10/06:00am 19.7 SE 26 32 1017.0 - 0.0 - - - - - - -
10/05:30am 19.7 SE 25 32 1016.6 - 0.0 - - - - - - -
10/05:00am 19.8 ESE 25 31 1016.4 - 0.0 - - - - - - -
10/04:30am 19.8 ESE 24 30 1016.2 - 0.0 - - - - - - -
10/04:00am 19.8 ESE 25 32 1016.3 - 0.0 - - - - - - -
10/03:30am 19.9 ESE 24 30 1016.1 - 0.0 - - - - - - -
10/03:00am 19.8 ESE 23 27 1016.2 - 0.0 - - - - - - -
10/02:30am 19.9 ESE 21 27 1016.2 - 0.0 - - - - - - -
10/02:00am 19.9 SE 21 27 1016.4 - 0.0 - - - - - - -
10/01:30am 20.0 ESE 22 27 1016.5 - 0.0 - - - - - - -
10/01:00am 20.0 ESE 25 31 1016.6 - 0.0 - - - - - - -
10/12:30am 19.9 ESE 25 30 1016.8 - 0.0 - - - - - - -
10/12:00am 20.0 ESE 27 32 1016.7 - 0.0 - - - - - - -
 
Date/Time
WST
Temp

°C
Wind Pressure Rain
since 9am
mm
Weather Cloud Vis
km
Sea
Height
m
Swell
Dir
 
Speed
knots
Gust
knots
hPa Trend Height
m
Period
s
Dir
09/11:30pm 20.0 ESE 26 32 1016.8 - 0.0 - - - - - - -
09/11:00pm 19.9 ESE 26 32 1017.0 - 0.0 - - - - - - -
09/10:30pm 19.9 ESE 26 31 1017.1 - 0.0 - - - - - - -
09/10:00pm 20.0 ESE 25 31 1017.5 - 0.0 - - - - - - -
09/09:30pm 20.0 SE 23 29 1017.6 - 0.0 - - - - - - -
09/09:00pm 20.0 ESE 23 30 1017.6 - 0.0 - - - - - - -
09/08:30pm 20.0 SE 23 29 1017.4 - 0.0 - - - - - - -
09/08:00pm 20.1 ESE 24 30 1016.9 - 0.0 - - - - - - -
09/07:30pm 20.1 SE 21 27 1016.7 - 0.0 - - - - - - -
09/07:00pm 20.2 SE 23 30 1016.7 - 0.0 - - - - - - -
09/06:30pm 20.2 SE 21 28 1016.6 - 0.0 - - - - - - -
09/06:00pm 20.3 SE 25 31 1016.4 - 0.0 - - - - - - -
09/05:30pm 20.9 SE 21 27 1016.3 - 0.0 - - - - - - -
09/05:00pm 21.1 SE 20 25 1016.3 - 0.0 - - - - - - -
09/04:30pm 21.5 SE 20 24 1016.3 - 0.0 - - - - - - -
09/04:00pm 21.7 SE 20 27 1016.6 - 0.0 - - - - - - -
09/03:30pm 22.4 SE 18 25 1016.7 - 0.0 - - - - - - -
09/03:00pm 23.0 SE 19 23 1016.9 - 0.0 - - - - - - -
09/02:30pm 23.1 SE 16 21 1017.0 - 0.0 - - - - - - -
09/02:00pm 22.8 SE 17 21 1017.1 - 0.0 - - - - - - -
09/01:30pm 22.7 SE 18 23 1017.3 - 0.0 - - - - - - -
09/01:00pm 22.5 SE 16 20 1017.4 - 0.0 - - - - - - -
09/12:30pm 22.6 SE 15 19 1017.4 - 0.0 - - - - - - -
09/12:00pm 22.6 SE 16 20 1017.4 - 0.0 - - - - - - -
09/11:30am 22.5 SE 15 19 1017.6 - 0.0 - - - - - - -
09/11:00am 21.6 SE 14 18 1017.8 - 0.0 - - - - - - -
09/10:30am 21.6 SE 14 18 1017.7 - 0.0 - - - - - - -
09/10:00am 21.0 SE 14 18 1017.7 - 0.0 - - - - - - -
09/09:30am 20.6 SE 14 17 1017.6 - 0.0 - - - - - - -
09/09:00am 20.3 SE 15 19 1017.5 - 0.0 - - - - - - -
09/08:30am 20.1 SE 15 18 1017.3 - 0.0 - - - - - - -
09/08:00am 19.9 SE 14 18 1017.3 - 0.0 - - - - - - -
09/07:30am 19.5 SE 15 17 1017.2 - 0.0 - - - - - - -
09/07:00am 19.2 SE 14 18 1016.9 - 0.0 - - - - - - -
09/06:30am 19.0 SE 14 18 1016.6 - 0.0 - - - - - - -
09/06:00am 18.9 SE 14 17 1016.3 - 0.0 - - - - - - -
09/05:30am 18.8 SE 14 19 1015.9 - 0.0 - - - - - - -
09/05:00am 18.8 SE 15 18 1015.4 - 0.0 - - - - - - -
09/04:30am 18.7 SE 15 18 1015.4 - 0.0 - - - - - - -
09/04:00am 18.7 SE 14 17 1015.0 - 0.0 - - - - - - -
09/03:30am 18.8 SE 13 16 1014.9 - 0.0 - - - - - - -
09/03:00am 18.6 SSE 11 14 1014.9 - 0.0 - - - - - - -
09/02:30am 18.7 SE 10 13 1014.8 - 0.0 - - - - - - -
09/02:00am 18.9 SSE 8 12 1015.1 - 0.0 - - - - - - -
09/01:30am 19.0 SSE 6 10 1015.2 - 0.0 - - - - - - -
09/01:00am 19.5 S 11 16 1015.2 - 0.0 - - - - - - -
09/12:30am 20.2 S 13 16 1015.2 - 0.0 - - - - - - -
09/12:00am 20.9 SSE 9 11 1015.1 - 0.0 - - - - - - -
 
Date/Time
WST
Temp

°C
Wind Pressure Rain
since 9am
mm
Weather Cloud Vis
km
Sea
Height
m
Swell
Dir
 
Speed
knots
Gust
knots
hPa Trend Height
m
Period
s
Dir
08/11:30pm 20.9 SSE 8 10 1015.2 - 0.0 - - - - - - -
08/11:00pm 21.0 SE 6 7 1015.5 - 0.0 - - - - - - -
08/10:30pm 21.2 SSE 6 7 1015.7 - 0.0 - - - - - - -
08/10:00pm 21.7 ESE 7 8 1015.7 - 0.0 - - - - - - -
08/09:30pm 22.0 E 10 11 1015.6 - 0.0 - - - - - - -
08/09:00pm 22.2 E 11 12 1015.6 - 0.0 - - - - - - -
08/08:30pm 22.2 E 12 13 1015.5 - 0.0 - - - - - - -
08/08:00pm 21.9 E 11 12 1015.5 - 0.0 - - - - - - -
08/07:30pm 22.0 E 10 12 1015.5 - 0.0 - - - - - - -
08/07:00pm 22.4 E 8 9 1015.3 - 0.0 - - - - - - -
08/06:30pm 23.2 E 8 9 1015.2 - 0.0 - - - - - - -
08/06:00pm 23.6 E 7 8 1014.9 - 0.0 - - - - - - -
08/05:30pm 23.9 E 5 6 1014.7 - 0.0 - - - - - - -
08/05:00pm 24.5 SSE 8 10 1014.7 - 0.0 - - - - - - -
08/04:30pm 24.9 E 5 7 1014.3 - 0.0 - - - - - - -
08/04:00pm 26.4 ESE 4 6 1014.3 - 0.0 - - - - - - -
08/03:30pm 28.8 SW 4 6 1014.4 - 0.0 - - - - - - -
08/03:00pm 27.5 WSW 4 5 1014.6 - 0.0 - - - - - - -
08/02:30pm 26.7 WSW 6 7 1015.0 - 0.0 - - - - - - -
08/02:00pm 26.6 WSW 6 7 1015.2 - 0.0 - - - - - - -
08/01:30pm 25.5 WSW 6 7 1015.3 - 0.0 - - - - - - -
08/01:00pm 24.4 W 5 6 1015.7 - 0.0 - - - - - - -
08/12:30pm 24.0 W 5 6 1015.9 - 0.0 - - - - - - -
08/12:00pm 23.5 W 5 6 1016.1 - 0.0 - - - - - - -
08/11:30am 24.8 SW 5 7 1016.5 - 0.0 - - - - - - -
08/11:00am 25.4 SSE 7 10 1016.3 - 0.0 - - - - - - -
08/10:30am 25.2 SSE 8 11 1016.1 - 0.0 - - - - - - -
08/10:00am 25.6 SE 5 8 1016.3 - 0.0 - - - - - - -
08/09:30am 26.4 SSE 5 7 1016.5 - 0.0 - - - - - - -
08/09:00am 24.3 SSE 7 14 1016.1 - 0.0 - - - - - - -
08/08:30am 22.8 SE 7 11 1016.2 - 0.0 - - - - - - -
08/08:00am 22.8 S 5 7 1016.6 - 0.0 - - - - - - -
08/07:30am 22.1 ESE 6 7 1016.3 - 0.0 - - - - - - -
08/07:00am 21.7 E 8 11 1016.1 - 0.0 - - - - - - -
08/06:30am 20.9 ENE 15 17 1015.6 - 0.0 - - - - - - -

Other Formats:

Comma delimited format used in spreadsheet applications
http://www.bom.gov.au/fwo/IDW60701/IDW60701.94601.axf

JavaScript Object Notation format (JSON) in row-major order
http://www.bom.gov.au/fwo/IDW60701/IDW60701.94601.json